Time;durP1;ratioP1;P1;durP2;ratioP2;P2;SDS_P1;SDS_P2;PMS_P1;PMS_P2;Temp;Humidity;BMP_temperature;BMP_pressure;BME280_temperature;BME280_humidity;BME280_pressure;Samples;Min_cycle;Max_cycle;Signal;HPM_P1;HPM_P2
2022/10/13 00:00:49;;;;;;;17.80;9.40;;;17.00;72.20;;;;;;5095856;28;20043;-69
2022/10/13 00:03:16;;;;;;;17.92;10.32;;;16.90;72.30;;;;;;5095380;28;20032;-68
2022/10/13 00:05:46;;;;;;;17.85;11.15;;;16.90;72.50;;;;;;5095573;28;20047;-68
2022/10/13 00:08:14;;;;;;;17.48;11.43;;;16.90;72.70;;;;;;5095494;28;20131;-69
2022/10/13 00:10:40;;;;;;;20.05;10.60;;;16.90;72.80;;;;;;5095695;28;20032;-68
2022/10/13 00:13:07;;;;;;;14.88;10.98;;;16.90;73.60;;;;;;5095512;28;20044;-69
2022/10/13 00:15:37;;;;;;;15.32;11.00;;;17.00;73.10;;;;;;5095472;28;20067;-68
2022/10/13 00:18:03;;;;;;;18.38;10.95;;;16.90;73.00;;;;;;5095358;28;20063;-68
2022/10/13 00:20:29;;;;;;;19.38;10.10;;;17.00;73.00;;;;;;5095614;28;20024;-68
2022/10/13 00:22:54;;;;;;;19.00;10.95;;;17.00;73.00;;;;;;5095411;28;20036;-68
2022/10/13 00:25:20;;;;;;;20.15;9.65;;;16.90;73.10;;;;;;5095076;28;20070;-68
2022/10/13 00:27:46;;;;;;;17.95;10.73;;;16.90;73.20;;;;;;5095194;28;20506;-69
2022/10/13 00:30:11;;;;;;;14.52;9.93;;;16.90;73.40;;;;;;5095416;28;20032;-69
2022/10/13 00:32:37;;;;;;;16.92;10.05;;;16.90;73.60;;;;;;5095293;28;20128;-69
2022/10/13 00:35:03;;;;;;;15.65;9.68;;;16.90;73.50;;;;;;5095205;28;20039;-69
2022/10/13 00:37:28;;;;;;;16.80;10.43;;;16.90;73.50;;;;;;5095276;28;20067;-68
2022/10/13 00:39:54;;;;;;;18.10;11.25;;;16.80;73.50;;;;;;5095064;28;20043;-68
2022/10/13 00:42:22;;;;;;;15.20;9.85;;;16.80;73.60;;;;;;5095148;28;20089;-68
2022/10/13 00:45:18;;;;;;;14.18;11.05;;;16.70;73.50;;;;;;5094882;28;20434;-68
2022/10/13 00:47:47;;;;;;;19.98;11.32;;;16.70;73.40;;;;;;5094683;28;20052;-68
2022/10/13 00:50:16;;;;;;;19.60;11.50;;;16.70;73.90;;;;;;5094778;28;20063;-68
2022/10/13 00:52:43;;;;;;;15.18;10.35;;;16.70;74.20;;;;;;5095157;28;20463;-68
2022/10/13 00:55:12;;;;;;;17.30;11.55;;;16.70;74.10;;;;;;5094717;28;20491;-69
2022/10/13 00:57:40;;;;;;;24.70;12.05;;;16.70;74.00;;;;;;5093951;28;20420;-68
2022/10/13 01:00:07;;;;;;;20.45;11.27;;;16.70;73.70;;;;;;5091799;28;20036;-68
2022/10/13 01:02:36;;;;;;;16.77;12.20;;;16.70;73.60;;;;;;5091781;28;20106;-69
2022/10/13 01:05:04;;;;;;;15.45;13.23;;;16.70;73.70;;;;;;5092857;28;21097;-68
2022/10/13 01:07:30;;;;;;;19.55;13.43;;;16.70;73.70;;;;;;5094114;28;20158;-68
2022/10/13 01:09:56;;;;;;;16.25;13.70;;;16.70;73.60;;;;;;5094588;28;20024;-68
2022/10/13 01:12:51;;;;;;;19.38;13.52;;;16.70;73.40;;;;;;5094247;28;20024;-69
2022/10/13 01:15:42;;;;;;;17.00;12.52;;;16.70;73.50;;;;;;5093605;28;20059;-68
2022/10/13 01:18:26;;;;;;;20.58;13.52;;;16.80;73.60;;;;;;5094157;28;20047;-68
2022/10/13 01:21:04;;;;;;;18.80;13.18;;;16.80;73.70;;;;;;5093623;28;20373;-68
2022/10/13 01:23:45;;;;;;;16.00;12.13;;;16.80;73.70;;;;;;5093859;28;20035;-69
2022/10/13 01:26:45;;;;;;;18.52;12.77;;;16.80;73.80;;;;;;5093927;28;20068;-72
2022/10/13 01:29:20;;;;;;;16.58;12.90;;;16.80;74.10;;;;;;5093612;28;20086;-68
2022/10/13 01:32:01;;;;;;;16.00;11.85;;;16.70;73.90;;;;;;5093804;28;20098;-68
2022/10/13 01:34:47;;;;;;;17.52;12.27;;;16.80;73.70;;;;;;5093847;28;20043;-68
2022/10/13 01:37:20;;;;;;;18.00;12.05;;;16.70;73.60;;;;;;5093535;28;20064;-68
2022/10/13 01:39:52;;;;;;;19.45;10.95;;;16.70;73.50;;;;;;5093468;28;20035;-68
2022/10/13 01:42:26;;;;;;;19.77;11.70;;;16.60;73.70;;;;;;5093753;28;20108;-68
2022/10/13 01:44:57;;;;;;;13.80;10.95;;;16.60;73.90;;;;;;5094096;28;20397;-68
2022/10/13 01:47:25;;;;;;;19.77;11.85;;;16.50;73.70;;;;;;5093730;28;20055;-68
2022/10/13 01:49:53;;;;;;;18.48;12.23;;;16.40;73.70;;;;;;5093800;28;20050;-68
2022/10/13 01:52:21;;;;;;;18.90;12.10;;;16.40;74.30;;;;;;5093717;28;20120;-68
2022/10/13 01:54:51;;;;;;;17.95;11.70;;;16.40;74.50;;;;;;5093632;28;20430;-68
2022/10/13 01:57:46;;;;;;;19.42;10.95;;;16.30;74.50;;;;;;5093837;28;20035;-68
2022/10/13 02:00:18;;;;;;;15.90;12.00;;;16.30;74.60;;;;;;5084347;28;20456;-68
2022/10/13 02:02:53;;;;;;;;;;;16.20;74.80;;;;;;5093712;28;20043;-68
2022/10/13 02:05:33;;;;;;;28.60;12.05;;;16.20;75.10;;;;;;5093714;28;19911;-68
2022/10/13 02:08:19;;;;;;;19.98;11.57;;;16.20;74.80;;;;;;5083255;28;20044;-68
2022/10/13 02:10:55;;;;;;;22.33;11.50;;;16.20;75.10;;;;;;5072808;28;20072;-68
2022/10/13 02:13:25;;;;;;;15.13;11.48;;;16.10;75.30;;;;;;5072966;28;20717;-68
2022/10/13 02:15:55;;;;;;;17.40;11.65;;;16.10;75.60;;;;;;5072943;28;20510;-69
2022/10/13 02:18:27;;;;;;;15.80;11.45;;;16.00;75.60;;;;;;5073113;28;20085;-68
2022/10/13 02:20:54;;;;;;;17.33;11.10;;;16.00;75.20;;;;;;5073131;28;20032;-68
2022/10/13 02:23:21;;;;;;;15.90;11.55;;;16.00;75.40;;;;;;5072947;28;20119;-68
2022/10/13 02:25:48;;;;;;;23.33;11.90;;;15.90;75.60;;;;;;5072287;28;20041;-68
2022/10/13 02:28:14;;;;;;;18.10;12.32;;;15.90;75.90;;;;;;5072733;28;20029;-68
2022/10/13 02:30:40;;;;;;;17.63;11.85;;;15.80;75.90;;;;;;5072719;28;20039;-69
2022/10/13 02:33:07;;;;;;;15.02;11.45;;;15.80;76.00;;;;;;5073075;28;20491;-68
2022/10/13 02:35:33;;;;;;;23.35;13.38;;;15.80;76.20;;;;;;5072683;28;20040;-70
2022/10/13 02:37:59;;;;;;;15.23;12.30;;;15.70;76.50;;;;;;5072746;28;20036;-69
2022/10/13 02:40:25;;;;;;;17.17;11.70;;;15.70;76.90;;;;;;5072955;28;20444;-71
2022/10/13 02:42:51;;;;;;;16.10;12.13;;;15.70;77.00;;;;;;5073053;28;20028;-69
2022/10/13 02:45:17;;;;;;;16.73;12.60;;;15.70;77.10;;;;;;5072583;28;20036;-69
2022/10/13 02:47:42;;;;;;;19.45;13.13;;;15.70;77.20;;;;;;5072674;28;20522;-69
2022/10/13 02:50:09;;;;;;;17.55;12.73;;;15.70;77.30;;;;;;5072865;28;20432;-68
2022/10/13 02:52:34;;;;;;;15.98;12.45;;;15.60;77.50;;;;;;5072857;28;20037;-68
2022/10/13 02:55:00;;;;;;;15.20;12.90;;;15.60;77.50;;;;;;5072456;28;20393;-68
2022/10/13 02:57:26;;;;;;;20.02;12.77;;;15.60;77.60;;;;;;5072922;28;20056;-68
2022/10/13 02:59:52;;;;;;;19.92;13.55;;;15.60;77.70;;;;;;5072698;28;20036;-68
2022/10/13 03:02:18;;;;;;;17.58;13.45;;;15.60;78.00;;;;;;5072783;28;20032;-68
2022/10/13 03:04:44;;;;;;;15.90;12.88;;;15.50;78.30;;;;;;5072573;28;20036;-68
2022/10/13 03:07:10;;;;;;;22.58;13.48;;;15.50;78.30;;;;;;5071762;28;20154;-68
2022/10/13 03:09:36;;;;;;;18.90;14.25;;;15.50;78.30;;;;;;5072537;28;20035;-68
2022/10/13 03:12:02;;;;;;;16.42;13.63;;;15.50;78.30;;;;;;5072730;28;20035;-68
2022/10/13 03:14:27;;;;;;;21.40;13.18;;;15.50;78.30;;;;;;5072529;28;20485;-68
2022/10/13 03:16:53;;;;;;;20.88;13.75;;;15.50;78.10;;;;;;5072474;28;20048;-68
2022/10/13 03:19:19;;;;;;;23.15;13.80;;;15.50;78.00;;;;;;5072449;28;20028;-69
2022/10/13 03:21:45;;;;;;;20.77;13.80;;;15.50;78.00;;;;;;5072825;28;20036;-68
2022/10/13 03:24:11;;;;;;;20.25;15.05;;;15.50;78.10;;;;;;5072299;28;20742;-68
2022/10/13 03:26:36;;;;;;;19.65;14.55;;;15.50;78.20;;;;;;5072254;28;20049;-68
2022/10/13 03:29:02;;;;;;;20.15;14.57;;;15.50;78.30;;;;;;5072310;28;20035;-68
2022/10/13 03:31:28;;;;;;;20.33;14.60;;;15.50;78.40;;;;;;5072101;28;20503;-68
2022/10/13 03:33:54;;;;;;;18.30;14.68;;;15.50;78.30;;;;;;5072451;28;20028;-68
2022/10/13 03:36:19;;;;;;;18.83;14.35;;;15.50;78.30;;;;;;5072177;28;20504;-69
2022/10/13 03:38:45;;;;;;;19.13;13.52;;;15.50;78.50;;;;;;5074653;28;20480;-68
2022/10/13 03:41:13;;;;;;;22.60;14.50;;;15.60;78.40;;;;;;5075779;28;20041;-68
2022/10/13 03:43:40;;;;;;;23.90;15.48;;;15.50;78.20;;;;;;5075849;28;20389;-68
2022/10/13 03:46:09;;;;;;;21.52;14.18;;;15.60;78.20;;;;;;5075495;28;20041;-68
2022/10/13 03:48:35;;;;;;;18.98;14.15;;;15.60;78.20;;;;;;5075878;28;20494;-68
2022/10/13 03:51:09;;;;;;;20.52;14.02;;;15.50;77.90;;;;;;5075786;28;20035;-68
2022/10/13 03:53:35;;;;;;;20.45;14.20;;;15.50;78.60;;;;;;5075935;28;20032;-68
2022/10/13 03:56:02;;;;;;;22.83;14.52;;;15.50;77.80;;;;;;5075571;28;20481;-68
2022/10/13 03:58:28;;;;;;;20.63;13.98;;;15.50;77.80;;;;;;5075512;28;20044;-68
2022/10/13 04:00:54;;;;;;;17.85;13.95;;;15.50;77.90;;;;;;5075613;28;20040;-71
2022/10/13 04:03:20;;;;;;;18.35;14.65;;;15.50;77.90;;;;;;5075556;28;20056;-68
2022/10/13 04:05:46;;;;;;;22.33;14.13;;;15.40;77.80;;;;;;5074999;28;20119;-68
2022/10/13 04:08:13;;;;;;;17.95;13.93;;;15.40;77.80;;;;;;5075140;28;20115;-68
2022/10/13 04:10:39;;;;;;;19.27;14.25;;;15.40;77.60;;;;;;5075460;28;20408;-71
2022/10/13 04:13:05;;;;;;;17.17;14.15;;;15.30;77.80;;;;;;5075377;28;20111;-68
2022/10/13 04:15:36;;;;;;;20.38;13.95;;;15.30;78.00;;;;;;5079584;28;20522;-68
2022/10/13 04:18:02;;;;;;;17.50;14.00;;;15.30;78.10;;;;;;5094958;28;20032;-68
2022/10/13 04:20:28;;;;;;;21.55;14.07;;;15.30;78.20;;;;;;5095346;28;20032;-68
2022/10/13 04:22:53;;;;;;;20.08;13.95;;;15.30;77.90;;;;;;5095727;28;20704;-68
2022/10/13 04:25:19;;;;;;;19.27;13.93;;;15.20;78.10;;;;;;5095316;28;20063;-68
2022/10/13 04:27:46;;;;;;;20.50;14.25;;;15.20;78.50;;;;;;5095447;28;20366;-68
2022/10/13 04:30:13;;;;;;;20.00;14.50;;;15.20;78.50;;;;;;5095369;28;20587;-68
2022/10/13 04:32:39;;;;;;;17.52;14.38;;;15.10;78.60;;;;;;5095187;28;20040;-68
2022/10/13 04:35:05;;;;;;;17.25;13.95;;;15.10;78.70;;;;;;5095018;28;20537;-68
2022/10/13 04:37:31;;;;;;;17.85;13.88;;;15.10;78.70;;;;;;5095187;28;20044;-68
2022/10/13 04:39:56;;;;;;;20.05;14.18;;;15.10;78.90;;;;;;5095316;28;20044;-68
2022/10/13 04:42:22;;;;;;;16.40;14.18;;;15.10;78.90;;;;;;5095088;28;20071;-68
2022/10/13 04:44:48;;;;;;;21.70;14.57;;;15.10;79.00;;;;;;5095034;28;20047;-68
2022/10/13 04:47:13;;;;;;;28.08;14.20;;;15.10;79.00;;;;;;5094801;28;20626;-69
2022/10/13 04:49:39;;;;;;;22.83;14.02;;;15.10;79.10;;;;;;5093633;28;20024;-68
2022/10/13 04:52:04;;;;;;;23.05;15.68;;;15.10;79.00;;;;;;5094730;28;20169;-68
2022/10/13 04:54:30;;;;;;;22.50;13.82;;;15.10;79.00;;;;;;5094583;28;20032;-68
2022/10/13 04:56:56;;;;;;;19.23;13.90;;;15.10;79.00;;;;;;5094558;28;20477;-68
2022/10/13 04:59:22;;;;;;;16.95;13.52;;;15.10;79.20;;;;;;5094803;28;20024;-68
2022/10/13 05:01:47;;;;;;;17.27;13.82;;;15.20;79.00;;;;;;5094721;28;20392;-68
2022/10/13 05:04:13;;;;;;;21.55;14.65;;;15.20;79.10;;;;;;5094651;28;20051;-68
2022/10/13 05:06:40;;;;;;;22.13;13.60;;;15.20;79.10;;;;;;5094409;28;20097;-68
2022/10/13 05:09:06;;;;;;;18.30;13.90;;;15.20;79.10;;;;;;5094398;28;20028;-68
2022/10/13 05:11:32;;;;;;;21.73;13.90;;;15.20;79.00;;;;;;5094572;28;20492;-68
2022/10/13 05:13:58;;;;;;;19.33;14.32;;;15.20;79.00;;;;;;5094551;28;20039;-68
2022/10/13 05:16:24;;;;;;;25.88;14.52;;;15.20;79.00;;;;;;5094054;28;20034;-68
2022/10/13 05:18:52;;;;;;;19.92;14.38;;;15.20;79.10;;;;;;5094117;28;20039;-68
2022/10/13 05:21:21;;;;;;;24.58;15.52;;;15.20;79.00;;;;;;5094231;28;20028;-68
2022/10/13 05:23:47;;;;;;;19.52;14.68;;;15.20;78.90;;;;;;5094008;28;20082;-68
2022/10/13 05:26:16;;;;;;;25.45;13.25;;;15.20;78.90;;;;;;5093939;28;20072;-67
2022/10/13 05:28:42;;;;;;;22.73;14.60;;;15.20;79.00;;;;;;5094023;28;20488;-68
2022/10/13 05:31:12;;;;;;;20.35;14.00;;;15.20;79.10;;;;;;5093945;28;20024;-68
2022/10/13 05:33:38;;;;;;;20.77;13.90;;;15.20;79.00;;;;;;5094263;28;20389;-69
2022/10/13 05:36:09;;;;;;;21.98;14.38;;;15.20;79.10;;;;;;5093849;28;20032;-68
2022/10/13 05:38:35;;;;;;;19.27;14.75;;;15.30;79.00;;;;;;5093481;28;20036;-68
2022/10/13 05:41:06;;;;;;;22.35;13.75;;;15.30;79.10;;;;;;5093475;28;20369;-69
2022/10/13 05:43:32;;;;;;;22.88;15.00;;;15.30;79.80;;;;;;5093397;28;20039;-70
2022/10/13 05:45:59;;;;;;;20.63;13.60;;;15.30;79.10;;;;;;5093109;28;20051;-71
2022/10/13 05:48:26;;;;;;;24.95;15.50;;;15.30;79.00;;;;;;5093650;28;20058;-68
2022/10/13 05:50:53;;;;;;;22.35;15.18;;;15.20;79.00;;;;;;5093634;28;20032;-68
2022/10/13 05:53:19;;;;;;;23.35;14.60;;;15.30;79.20;;;;;;5093730;28;20032;-68
2022/10/13 05:55:45;;;;;;;25.10;14.57;;;15.30;79.50;;;;;;5093732;28;20047;-68
2022/10/13 05:58:11;;;;;;;16.67;14.20;;;15.30;79.50;;;;;;5093500;28;20024;-68
2022/10/13 06:00:36;;;;;;;18.15;14.25;;;15.30;79.70;;;;;;5093532;28;20071;-69
2022/10/13 06:03:08;;;;;;;24.70;15.25;;;15.20;79.70;;;;;;5093466;28;20468;-69
2022/10/13 06:05:33;;;;;;;19.38;14.30;;;15.30;79.70;;;;;;5093747;28;20028;-68
2022/10/13 06:07:59;;;;;;;21.35;13.50;;;15.30;79.60;;;;;;5093451;28;20040;-68
2022/10/13 06:10:25;;;;;;;18.73;13.88;;;15.30;79.50;;;;;;5093251;28;20058;-68
2022/10/13 06:12:51;;;;;;;17.00;13.93;;;15.40;79.40;;;;;;5092008;28;20028;-71
2022/10/13 06:15:17;;;;;;;20.95;14.40;;;15.30;79.50;;;;;;5091818;28;20050;-70
2022/10/13 06:17:42;;;;;;;23.13;14.45;;;15.40;79.60;;;;;;5093050;28;20479;-70
2022/10/13 06:20:09;;;;;;;19.20;14.18;;;15.40;79.40;;;;;;5092348;28;20388;-68
2022/10/13 06:22:36;;;;;;;19.88;14.02;;;15.40;79.50;;;;;;5074726;28;20813;-67
2022/10/13 06:25:03;;;;;;;18.58;14.25;;;15.40;79.50;;;;;;5072690;28;20033;-70
2022/10/13 06:27:29;;;;;;;22.70;15.40;;;15.50;79.50;;;;;;5072173;28;20048;-68
2022/10/13 06:29:55;;;;;;;19.70;14.15;;;15.50;79.50;;;;;;5071035;28;20489;-70
2022/10/13 06:32:21;;;;;;;26.50;15.10;;;15.60;79.50;;;;;;5073059;28;20029;-69
2022/10/13 06:34:47;;;;;;;24.67;14.15;;;15.60;79.50;;;;;;5072908;28;20032;-68
2022/10/13 06:37:12;;;;;;;21.67;14.85;;;15.60;80.00;;;;;;5072199;28;20044;-69
2022/10/13 06:39:38;;;;;;;29.55;14.23;;;15.60;79.90;;;;;;5072370;28;20036;-67
2022/10/13 06:42:04;;;;;;;28.15;14.93;;;15.70;80.10;;;;;;5072154;28;20123;-68
2022/10/13 06:44:31;;;;;;;23.58;15.02;;;15.80;80.20;;;;;;5072673;28;20116;-68
2022/10/13 06:46:57;;;;;;;24.77;14.88;;;15.80;80.10;;;;;;5072609;28;20070;-68
2022/10/13 06:49:23;;;;;;;22.63;14.70;;;15.80;80.30;;;;;;5072468;28;20032;-70
2022/10/13 06:51:49;;;;;;;19.70;14.77;;;15.80;80.30;;;;;;5072917;28;20036;-69
2022/10/13 06:54:15;;;;;;;19.60;13.13;;;15.90;80.20;;;;;;5072167;28;20106;-69
2022/10/13 06:56:41;;;;;;;22.10;14.85;;;15.90;79.90;;;;;;5072384;28;20044;-70
2022/10/13 06:59:06;;;;;;;19.40;14.43;;;15.90;79.70;;;;;;5072673;28;20522;-69
2022/10/13 07:01:32;;;;;;;25.15;15.35;;;16.00;79.70;;;;;;5072459;28;20083;-70
2022/10/13 07:03:58;;;;;;;18.45;14.52;;;16.00;80.00;;;;;;5072741;28;20108;-69
2022/10/13 07:06:24;;;;;;;21.13;15.25;;;16.00;79.60;;;;;;5072054;28;20140;-69
2022/10/13 07:08:49;;;;;;;23.60;15.00;;;16.10;79.40;;;;;;5072180;28;20075;-70
2022/10/13 07:11:17;;;;;;;27.10;15.95;;;16.20;79.30;;;;;;5072582;28;20032;-69
2022/10/13 07:13:43;;;;;;;33.50;15.25;;;16.20;79.30;;;;;;5074784;28;20032;-69
2022/10/13 07:16:10;;;;;;;29.38;15.73;;;16.30;79.20;;;;;;5076376;28;20436;-70
2022/10/13 07:18:36;;;;;;;24.67;15.52;;;16.30;79.00;;;;;;5076145;28;20424;-69
2022/10/13 07:21:02;;;;;;;24.63;15.25;;;16.40;79.00;;;;;;5076255;28;20040;-70
2022/10/13 07:23:29;;;;;;;22.88;15.25;;;16.40;79.40;;;;;;5076202;28;20029;-69
2022/10/13 07:25:56;;;;;;;37.22;16.33;;;16.50;78.70;;;;;;5076220;28;20485;-69
2022/10/13 07:28:25;;;;;;;28.23;15.05;;;16.50;78.60;;;;;;5076548;28;20374;-71
2022/10/13 07:30:51;;;;;;;22.33;16.08;;;16.60;78.30;;;;;;5076449;28;20033;-69
2022/10/13 07:33:19;;;;;;;31.38;15.75;;;16.60;77.80;;;;;;5076078;28;20048;-70
2022/10/13 07:35:44;;;;;;;21.00;15.23;;;16.60;77.70;;;;;;5075999;28;20090;-69
2022/10/13 07:38:11;;;;;;;25.90;15.35;;;16.70;77.60;;;;;;5075851;28;20436;-69
2022/10/13 07:40:37;;;;;;;23.85;14.48;;;16.70;77.50;;;;;;5075733;28;20025;-69
2022/10/13 07:43:03;;;;;;;23.65;15.43;;;16.80;77.40;;;;;;5075921;28;20072;-69
2022/10/13 07:45:29;;;;;;;20.08;14.85;;;16.90;77.60;;;;;;5076089;28;20059;-69
2022/10/13 07:47:55;;;;;;;26.55;16.05;;;16.90;77.60;;;;;;5075900;28;20045;-68
2022/10/13 07:50:21;;;;;;;25.63;16.40;;;17.00;77.30;;;;;;5075867;28;20063;-69
2022/10/13 07:52:47;;;;;;;23.50;17.60;;;17.10;77.40;;;;;;5073940;28;20041;-69
2022/10/13 07:55:13;;;;;;;22.65;16.13;;;17.20;76.90;;;;;;5075391;28;20032;-71
2022/10/13 07:57:38;;;;;;;21.63;16.90;;;17.20;76.70;;;;;;5075559;28;20388;-70
2022/10/13 08:00:05;;;;;;;22.55;17.40;;;17.30;76.60;;;;;;5075707;28;20415;-68
2022/10/13 08:02:31;;;;;;;24.27;17.33;;;17.40;76.10;;;;;;5074944;28;20040;-69
2022/10/13 08:04:57;;;;;;;27.55;16.52;;;17.40;76.20;;;;;;5074845;28;20427;-69
2022/10/13 08:07:23;;;;;;;22.35;16.98;;;17.50;76.20;;;;;;5074846;28;20044;-69
2022/10/13 08:09:48;;;;;;;26.38;17.25;;;17.60;76.10;;;;;;5074895;28;20025;-69
2022/10/13 08:12:14;;;;;;;21.92;18.25;;;17.60;75.70;;;;;;5075171;28;20036;-68
2022/10/13 08:14:40;;;;;;;23.58;17.92;;;17.70;75.30;;;;;;5074935;28;20082;-70
2022/10/13 08:17:06;;;;;;;23.40;17.98;;;17.80;75.50;;;;;;5075284;28;20033;-69
2022/10/13 08:19:32;;;;;;;27.13;16.85;;;17.80;75.60;;;;;;5075338;28;20032;-69
2022/10/13 08:21:58;;;;;;;22.33;16.38;;;17.90;75.40;;;;;;5075233;28;20032;-69
2022/10/13 08:24:23;;;;;;;19.40;17.25;;;18.00;75.50;;;;;;5073596;28;20508;-69
2022/10/13 08:26:49;;;;;;;22.77;18.05;;;18.00;75.60;;;;;;5074427;28;20044;-68
2022/10/13 08:29:16;;;;;;;25.60;17.33;;;18.00;74.80;;;;;;5074877;28;20025;-69
2022/10/13 08:31:42;;;;;;;26.30;17.75;;;18.10;74.20;;;;;;5074992;28;20040;-69
2022/10/13 08:34:08;;;;;;;21.80;17.88;;;18.20;74.30;;;;;;5074781;28;20473;-68
2022/10/13 08:36:34;;;;;;;24.48;17.48;;;18.20;73.90;;;;;;5074503;28;20036;-69
2022/10/13 08:39:00;;;;;;;19.35;17.45;;;18.30;73.90;;;;;;5074033;28;20370;-70
2022/10/13 08:41:31;;;;;;;27.95;18.52;;;18.30;73.60;;;;;;5074272;28;20150;-69
2022/10/13 08:44:09;;;;;;;20.98;17.08;;;18.40;73.40;;;;;;5074837;28;20028;-69
2022/10/13 08:47:08;;;;;;;24.02;17.58;;;18.40;73.00;;;;;;5074774;28;20036;-69
2022/10/13 08:49:34;;;;;;;19.17;16.40;;;18.50;73.40;;;;;;5074646;28;20039;-72
2022/10/13 08:52:04;;;;;;;21.70;17.70;;;18.60;72.60;;;;;;5074809;28;20396;-69
2022/10/13 08:54:30;;;;;;;24.05;16.83;;;18.60;72.30;;;;;;5074619;28;20420;-69
2022/10/13 08:56:55;;;;;;;18.55;16.27;;;18.70;72.00;;;;;;5074604;28;20040;-68
2022/10/13 08:59:21;;;;;;;24.17;18.05;;;18.70;71.10;;;;;;5074546;28;20091;-70
2022/10/13 09:01:52;;;;;;;23.63;16.48;;;18.80;71.10;;;;;;5074296;28;20106;-68
2022/10/13 09:04:28;;;;;;;20.92;16.75;;;18.90;71.70;;;;;;5074298;28;20028;-68
2022/10/13 09:07:18;;;;;;;23.10;17.17;;;18.90;71.20;;;;;;5073975;28;20080;-68
2022/10/13 09:09:43;;;;;;;28.48;17.05;;;19.00;70.10;;;;;;5073641;28;20136;-67
2022/10/13 09:12:13;;;;;;;23.30;16.95;;;19.00;70.90;;;;;;5073799;28;20532;-68
2022/10/13 09:14:40;;;;;;;20.02;16.63;;;19.10;71.30;;;;;;5074024;28;20036;-68
2022/10/13 09:17:19;;;;;;;24.73;17.05;;;19.20;70.40;;;;;;5074273;28;20029;-69
2022/10/13 09:19:58;;;;;;;20.27;16.60;;;19.20;70.00;;;;;;5074356;28;20062;-69
2022/10/13 09:22:25;;;;;;;27.25;17.08;;;19.30;70.10;;;;;;5074103;28;20021;-69
2022/10/13 09:25:06;;;;;;;23.45;15.60;;;19.40;69.70;;;;;;5074012;28;20374;-69
2022/10/13 09:27:51;;;;;;;18.27;15.23;;;19.40;69.80;;;;;;5073969;28;20047;-68
2022/10/13 09:30:33;;;;;;;18.48;15.70;;;19.50;70.50;;;;;;5073777;28;20041;-67
2022/10/13 09:33:08;;;;;;;21.10;15.43;;;19.60;68.70;;;;;;5073858;28;20037;-71
2022/10/13 09:35:39;;;;;;;17.10;14.15;;;19.70;69.40;;;;;;5073410;28;20111;-67
2022/10/13 09:38:19;;;;;;;21.58;14.15;;;19.70;68.60;;;;;;5074142;28;20037;-74
2022/10/13 09:41:08;;;;;;;17.08;14.52;;;19.70;67.80;;;;;;5073907;28;20063;-69
2022/10/13 09:43:39;;;;;;;20.45;14.70;;;19.80;67.80;;;;;;5073726;28;20079;-68
2022/10/13 09:46:22;;;;;;;17.67;13.02;;;19.90;67.30;;;;;;5073504;28;20159;-72
2022/10/13 09:48:52;;;;;;;18.35;13.85;;;19.90;66.00;;;;;;5073528;28;20480;-69
2022/10/13 09:51:38;;;;;;;18.92;13.32;;;20.00;66.10;;;;;;5073856;28;20032;-69
2022/10/13 09:54:05;;;;;;;23.40;14.25;;;20.00;65.20;;;;;;5073631;28;20032;-68
2022/10/13 09:56:36;;;;;;;19.67;14.27;;;20.00;66.60;;;;;;5073264;28;20060;-70
2022/10/13 09:59:23;;;;;;;20.23;14.05;;;20.10;66.10;;;;;;5072925;28;20028;-68
2022/10/13 10:01:51;;;;;;;18.88;13.77;;;20.10;66.40;;;;;;5073152;28;20146;-69
2022/10/13 10:04:23;;;;;;;18.23;13.48;;;20.20;65.80;;;;;;5073250;28;20036;-69
2022/10/13 10:06:49;;;;;;;19.58;14.27;;;20.20;65.10;;;;;;5072880;28;20500;-69
2022/10/13 10:09:32;;;;;;;22.33;13.57;;;20.30;64.00;;;;;;5073224;28;20039;-68
2022/10/13 10:11:59;;;;;;;18.80;13.13;;;20.30;64.70;;;;;;5073381;28;20135;-69
2022/10/13 10:14:31;;;;;;;26.20;14.95;;;20.30;64.50;;;;;;5073056;28;20035;-68
2022/10/13 10:17:06;;;;;;;23.42;14.55;;;20.40;64.20;;;;;;5073317;28;20119;-69
2022/10/13 10:19:42;;;;;;;22.70;14.23;;;20.40;65.30;;;;;;5073193;28;20493;-69
2022/10/13 10:22:23;;;;;;;20.42;14.27;;;20.40;64.90;;;;;;5073237;28;20039;-69
2022/10/13 10:25:17;;;;;;;21.60;14.60;;;20.50;64.60;;;;;;5073048;28;20063;-69
2022/10/13 10:28:12;;;;;;;21.65;16.60;;;20.60;64.30;;;;;;5073133;28;20404;-73
2022/10/13 10:30:56;;;;;;;21.50;15.93;;;20.60;63.00;;;;;;5073133;28;20028;-69
2022/10/13 10:33:51;;;;;;;18.20;14.75;;;20.70;63.90;;;;;;5072757;28;20043;-68
2022/10/13 10:36:46;;;;;;;20.95;15.23;;;20.70;63.40;;;;;;5067361;28;20550;-69
2022/10/13 10:39:35;;;;;;;23.40;16.73;;;20.80;63.60;;;;;;5067811;28;20032;-71
2022/10/13 10:42:25;;;;;;;19.17;14.52;;;20.80;63.20;;;;;;5072971;28;20048;-69
2022/10/13 10:44:53;;;;;;;16.88;13.57;;;20.90;62.40;;;;;;5072721;28;20171;-69
2022/10/13 10:47:24;;;;;;;19.88;15.45;;;20.90;61.00;;;;;;5073073;28;20527;-69
2022/10/13 10:49:54;;;;;;;20.23;15.40;;;21.00;61.70;;;;;;5076389;28;20504;-68
2022/10/13 10:53:01;;;;;;;22.25;15.05;;;21.10;63.50;;;;;;5077114;28;20111;-69
2022/10/13 10:55:50;;;;;;;19.98;15.43;;;21.10;62.10;;;;;;5076594;28;20033;-70
2022/10/13 10:58:31;;;;;;;18.38;15.95;;;21.20;61.40;;;;;;5076630;28;20147;-73
2022/10/13 11:01:23;;;;;;;18.17;15.90;;;21.20;62.40;;;;;;5076755;28;20179;-73
2022/10/13 11:04:13;;;;;;;18.75;16.58;;;21.30;61.20;;;;;;5076658;28;20078;-69
2022/10/13 11:06:38;;;;;;;18.98;15.73;;;21.30;60.60;;;;;;5076360;28;20075;-69
2022/10/13 11:09:05;;;;;;;19.17;16.40;;;21.30;60.90;;;;;;5076656;28;20021;-68
2022/10/13 11:11:34;;;;;;;20.90;15.95;;;21.40;60.90;;;;;;5076674;28;20039;-70
2022/10/13 11:14:04;;;;;;;21.40;16.17;;;21.40;59.20;;;;;;5076530;28;20039;-69
2022/10/13 11:17:08;;;;;;;19.42;16.80;;;21.50;60.30;;;;;;5076562;28;20397;-69
2022/10/13 11:19:36;;;;;;;20.00;15.70;;;21.50;59.70;;;;;;5076274;28;20082;-68
2022/10/13 11:22:10;;;;;;;19.00;15.70;;;21.50;59.10;;;;;;5075643;28;20029;-68
2022/10/13 11:24:38;;;;;;;21.98;16.23;;;21.50;58.80;;;;;;5076373;28;20076;-69
2022/10/13 11:27:06;;;;;;;21.92;16.58;;;21.60;58.20;;;;;;5076422;28;20036;-69
2022/10/13 11:29:56;;;;;;;20.33;16.13;;;21.60;58.90;;;;;;5076183;28;20036;-69
2022/10/13 11:35:00;;;;;;;22.08;16.60;;;21.60;58.90;;;;;;5076247;28;20036;-71
2022/10/13 11:37:45;;;;;;;17.52;14.73;;;21.70;58.60;;;;;;5076228;28;20037;-69
2022/10/13 11:40:30;;;;;;;21.25;16.25;;;21.80;58.20;;;;;;5076577;28;20036;-69
2022/10/13 11:43:14;;;;;;;18.80;16.55;;;21.70;58.60;;;;;;5075969;28;20028;-69
2022/10/13 11:46:09;;;;;;;21.15;17.50;;;21.80;59.70;;;;;;5075822;28;20060;-70
2022/10/13 11:48:43;;;;;;;21.23;16.45;;;21.80;58.90;;;;;;5060717;28;20480;-69
2022/10/13 11:51:22;;;;;;;18.33;16.55;;;21.80;59.40;;;;;;5076044;28;20095;-69
2022/10/13 11:53:57;;;;;;;22.23;17.58;;;21.90;59.10;;;;;;5076098;28;20033;-69
2022/10/13 11:56:53;;;;;;;20.70;18.55;;;21.90;59.60;;;;;;5075654;28;20039;-69
2022/10/13 11:59:22;;;;;;;24.40;17.95;;;21.90;59.00;;;;;;5066773;28;20119;-68
2022/10/13 12:01:53;;;;;;;25.13;18.23;;;21.90;58.60;;;;;;5075745;28;20040;-69
2022/10/13 12:04:21;;;;;;;21.23;18.98;;;22.00;59.70;;;;;;5075674;28;20028;-69
2022/10/13 12:06:58;;;;;;;24.15;17.50;;;22.00;59.90;;;;;;5075441;28;20052;-69
2022/10/13 12:09:24;;;;;;;32.15;17.63;;;22.00;59.10;;;;;;5075969;28;20437;-69
2022/10/13 12:12:03;;;;;;;26.38;18.15;;;22.10;58.50;;;;;;5075621;28;20046;-69
2022/10/13 12:14:36;;;;;;;19.95;17.45;;;22.10;57.30;;;;;;5075757;28;20035;-69
2022/10/13 12:17:02;;;;;;;24.58;17.45;;;22.10;56.80;;;;;;5075251;28;20592;-71
2022/10/13 12:19:30;;;;;;;19.80;17.48;;;22.10;56.00;;;;;;5075262;28;20358;-69
2022/10/13 12:21:59;;;;;;;19.92;17.58;;;22.10;56.30;;;;;;5075355;28;20366;-69
2022/10/13 12:24:27;;;;;;;26.70;18.13;;;22.10;55.80;;;;;;5075155;28;20020;-69
2022/10/13 12:26:54;;;;;;;20.80;16.83;;;22.10;56.70;;;;;;5075070;28;20040;-69
2022/10/13 12:29:24;;;;;;;20.25;17.25;;;22.20;56.10;;;;;;5074859;28;20490;-68
2022/10/13 12:31:50;;;;;;;25.10;18.05;;;22.20;56.90;;;;;;5074890;28;20037;-69
2022/10/13 12:34:30;;;;;;;18.83;16.85;;;22.20;56.70;;;;;;5074963;28;20051;-69
2022/10/13 12:37:16;;;;;;;20.40;16.50;;;22.20;57.10;;;;;;5074972;28;20041;-70
2022/10/13 12:39:42;;;;;;;25.52;17.98;;;22.20;57.20;;;;;;5074895;28;20028;-70
2022/10/13 12:42:12;;;;;;;21.35;17.25;;;22.20;56.20;;;;;;5074882;28;20103;-70
2022/10/13 12:44:38;;;;;;;25.98;17.83;;;22.20;56.30;;;;;;5075054;28;20041;-69
2022/10/13 12:47:04;;;;;;;23.65;18.23;;;22.20;56.70;;;;;;5074960;28;20058;-70